Nearby METAR Reports

 

KSJC - San Jose, California, USA
Distance from station: NE 9mi, 14km
Updated: Tue, 23-Jan-2018 6:53am PST
Mist, Overcast
Mist, Overcast
 Wind from calm
Wind: Calm
Temperature: 46°F , 8°C
Dew Point: 45°F , 7°C
Humidity: 93%
Barometer: 30.28 inHg , 1025.4 hPa
Summary: Mist
Clouds: Overcast
Visibility: 6 miles , 10 km
Cloud details: Few Clouds 100 ft
Mostly cloudy 1400 ft
Overcast 1600 ft
2018/01/23 14:53 KSJC 231453Z 00000KT 6SM BR FEW001 BKN014 OVC016 08/07 A3028 RMK AO2 SLP253 T00830067 55002 $
KNUQ - Moffett Nas/Mtn, California, USA
Distance from station: N 9mi, 14km
Updated: Tue, 23-Jan-2018 6:56am PST
Clear
Clear
 Wind from calm
Wind: Calm
Temperature: 46°F , 8°C
Dew Point: 45°F , 7°C
Humidity: 93%
Barometer: 30.29 inHg , 1025.7 hPa
Clouds: Clear
Visibility: 7 miles , 11 km
2018/01/23 14:56 KNUQ 231456Z 00000KT 7SM CLR 08/07 A3029 RMK AO2 SLP258 T00780072 55003
 
KPAO - Palo Alto, California, USA
Distance from station: NNW 14mi, 23km
Updated: Tue, 23-Jan-2018 6:47am PST
Mostly cloudy
Mostly cloudy
 Wind from calm
Wind: Calm
Temperature: 48°F , 9°C
Dew Point: 46°F , 8°C
Humidity: 94%
Barometer: 30.28 inHg , 1025.4 hPa
Clouds: Mostly cloudy
Visibility: 10 miles , 16 km
Cloud details: Mostly cloudy 1300 ft
2018/01/23 14:47 KPAO 231447Z 00000KT 10SM BKN013 09/08 A3028
KRHV - San Jose/Reid, California, USA
Distance from station: ENE 12mi, 19km
Updated: Tue, 23-Jan-2018 6:47am PST
Mist, Overcast
Mist, Overcast
 Wind from calm
Wind: Calm
Temperature: 48°F , 9°C
Dew Point: 45°F , 7°C
Humidity: 87%
Barometer: 30.27 inHg , 1025.1 hPa
Summary: Mist
Clouds: Overcast
Visibility: 4 miles , 6 km
Cloud details: Mostly cloudy 900 ft
Overcast 1200 ft
2018/01/23 14:47 KRHV 231447Z 00000KT 4SM BR BKN009 OVC012 09/07 A3027
 
KOAK - Oakland, California, USA
Distance from station: NNW 31mi, 50km
Updated: Tue, 23-Jan-2018 6:53am PST
Few Clouds
Few Clouds
 Wind from ENE
Wind: ENE 5 mph , 7 km/h
Temperature: 43°F , 6°C
Wind Chill: 40°F , 4°C
Dew Point: 43°F , 6°C
Humidity: 100%
Barometer: 30.29 inHg , 1025.7 hPa
Clouds: Few Clouds
Visibility: 9 miles , 14 km
Cloud details: Few Clouds 1500 ft
2018/01/23 14:53 KOAK 231453Z 07004KT 9SM FEW015 06/06 A3029 RMK AO2 SLP258 T00560056 55000
KSQL - San Carlos Airpo, California, USA
Distance from station: NW 21mi, 34km
Updated: Tue, 23-Jan-2018 6:55am PST
Overcast
Overcast
 Wind from calm
Wind: Calm
Temperature: 45°F , 7°C
Dew Point: 45°F , 7°C
Humidity: 100%
Barometer: 30.29 inHg , 1025.7 hPa
Clouds: Overcast
Visibility: 10 miles , 16 km
Cloud details: Overcast 1300 ft
2018/01/23 14:55 KSQL 231455Z AUTO 00000KT 10SM OVC013 07/07 A3029 RMK AO2
 
KSFO - San Francisco, California, USA
Distance from station: NW 30mi, 49km
Updated: Tue, 23-Jan-2018 7:22am PST
Mostly cloudy
Mostly cloudy
 Wind from N
Wind: N 6 mph , 9 km/h
Temperature: 50°F , 10°C
Wind Chill: 48°F , 9°C
Dew Point: 45°F , 7°C
Humidity: 82%
Barometer: 30.28 inHg , 1025.4 hPa
Clouds: Mostly cloudy
Visibility: 10 miles , 16 km
Cloud details: Partly cloudy 800 ft
Mostly cloudy 1200 ft
Mostly cloudy 18000 ft
2018/01/23 15:22 KSFO 231522Z 35005KT 10SM SCT008 BKN012 BKN180 10/07 A3028 RMK AO2 T01000072
KE16 - San Martin, California, USA
Distance from station: ESE 27mi, 43km
Updated: Tue, 23-Jan-2018 7:10am PST
Mist, Overcast
Mist, Overcast
 Wind from calm
Wind: Calm
Temperature: 39°F , 4°C
Dew Point: 39°F , 4°C
Humidity: 100%
Barometer: 30.29 inHg , 1025.7 hPa
Summary: Mist
Clouds: Overcast
Visibility: 3 miles , 5 km
Cloud details: Mostly cloudy 500 ft
Overcast 2000 ft
2018/01/23 15:10 KE16 231510Z AUTO 00000KT 3SM BR BKN005 OVC020 04/04 A3029 RMK AO2
 
KWVI - Watsonville, California, USA
Distance from station: SSE 27mi, 44km
Updated: Tue, 23-Jan-2018 6:53am PST
Clear
Clear
 Wind from WNW
Wind: WNW 3 mph , 6 km/h
Temperature: 41°F , 5°C
Dew Point: 39°F , 4°C
Humidity: 93%
Barometer: 30.26 inHg , 1024.7 hPa
Clouds: Clear
Visibility: 9 miles , 14 km
2018/01/23 14:53 KWVI 231453Z AUTO 30003KT 9SM CLR 05/04 A3026 RMK AO2 SLP248 T00500044 55002
KHAF - Half Moon Bay, California, USA
Distance from station: WNW 31mi, 50km
Updated: Tue, 23-Jan-2018 7:15am PST
Clear
Clear
 Wind from ENE
Wind: ENE 8 mph , 13 km/h
Temperature: 46°F , 8°C
Wind Chill: 42°F , 6°C
Dew Point: 43°F , 6°C
Humidity: 87%
Barometer: 30.23 inHg , 1023.7 hPa
Clouds: Clear
Visibility: 9 miles , 14 km
2018/01/23 15:15 KHAF 231515Z AUTO 06007KT 9SM CLR 08/06 A3023 RMK AO2
 
KHWD - Hayward, California, USA
Distance from station: N 28mi, 44km
Updated: Tue, 23-Jan-2018 6:54am PST
Few Clouds
Few Clouds
 Wind from NNE
Wind: NNE 5 mph , 7 km/h
Temperature: 45°F , 7°C
Wind Chill: 42°F , 6°C
Dew Point: 39°F , 4°C
Humidity: 81%
Barometer: 30.28 inHg , 1025.4 hPa
Clouds: Few Clouds
Visibility: 10 miles , 16 km
Cloud details: Few Clouds 3000 ft
2018/01/23 14:54 KHWD 231454Z 03004KT 10SM FEW030 07/04 A3028 RMK AO2 SLP265 6//// T00720044 55000 PNO
KLVK - Livermore, California, USA
Distance from station: NNE 31mi, 51km
Updated: Tue, 23-Jan-2018 6:53am PST
Overcast
Overcast
 Wind from calm
Wind: Calm
Temperature: 43°F , 6°C
Dew Point: 41°F , 5°C
Humidity: 93%
Barometer: 30.28 inHg , 1025.4 hPa
Clouds: Overcast
Visibility: 9 miles , 14 km
Cloud details: Overcast 1300 ft
2018/01/23 14:53 KLVK 231453Z 00000KT 9SM OVC013 06/05 A3028 RMK AO2 SLP253 T00610050 55002